Terminal Aerodrome Forecast
Issued by NWS

Home | Current Version | Previous Version | Text Only | Print | Product List | Glossary On
Versions: 1 2 3 4 5 6 7 8 9 10 11 12 13 14 15 16 17 18 19 20
000
FTUS44 KLZK 231733
TAFLIT
TAF
KLIT 231733Z 2318/2418 27008KT P6SM VCTS SCT025 BKN050CB
      TEMPO 2322/2402 VRB20G40KT 2SM -TSRA BR OVC025CB
     FM240200 02007KT P6SM VCSH SCT050 BKN100
     FM241400 04009KT P6SM VCSH BKN050 OVC100=

USA.gov is the U.S. government's official web portal to all federal, state and local government web resources and services.